Time;durP1;ratioP1;P1;durP2;ratioP2;P2;SDS_P1;SDS_P2;PMS_P1;PMS_P2;Temp;Humidity;BMP_temperature;BMP_pressure;BME280_temperature;BME280_humidity;BME280_pressure;Samples;Min_cycle;Max_cycle;Signal;HPM_P1;HPM_P2
2023/07/11 00:01:18;;;;;;;5.03;2.38;;;;;;;19.35;74.49;101258.97;5035291;28;20029;-59
2023/07/11 00:03:43;;;;;;;4.85;2.40;;;;;;;19.29;74.96;101264.44;5015941;28;20068;-60
2023/07/11 00:06:15;;;;;;;6.32;2.58;;;;;;;19.27;75.15;101258.38;5033587;28;20040;-60
2023/07/11 00:08:40;;;;;;;5.40;2.80;;;;;;;19.26;74.97;101248.81;5032529;28;20503;-60
2023/07/11 00:11:09;;;;;;;8.38;3.13;;;;;;;19.24;75.16;101263.72;5042063;28;20048;-60
2023/07/11 00:13:35;;;;;;;6.78;2.97;;;;;;;19.20;75.19;101265.63;5039678;28;20056;-60
2023/07/11 00:16:04;;;;;;;7.70;2.70;;;;;;;19.15;75.54;101266.66;5036121;28;20055;-60
2023/07/11 00:18:30;;;;;;;6.70;3.03;;;;;;;19.13;75.60;101264.09;5038109;28;20037;-60
2023/07/11 00:20:56;;;;;;;6.43;2.72;;;;;;;19.09;75.84;101264.28;5035941;28;20060;-60
2023/07/11 00:23:21;;;;;;;3.70;2.65;;;;;;;19.04;75.83;101257.44;5036412;28;20032;-60
2023/07/11 00:25:47;;;;;;;6.10;2.65;;;;;;;19.01;76.22;101259.31;5034982;28;20050;-60
2023/07/11 00:28:12;;;;;;;3.88;2.40;;;;;;;18.98;76.32;101254.16;5037882;28;20033;-60
2023/07/11 00:30:41;;;;;;;5.35;2.72;;;;;;;18.95;76.72;101255.13;5037317;28;20657;-60
2023/07/11 00:33:09;;;;;;;5.90;3.10;;;;;;;18.89;77.33;101255.34;5034504;28;20093;-60
2023/07/11 00:35:37;;;;;;;5.50;2.67;;;;;;;18.84;77.23;101253.78;5035848;28;20461;-60
2023/07/11 00:38:03;;;;;;;7.32;2.35;;;;;;;18.82;77.44;101253.81;5037236;28;20033;-60
2023/07/11 00:40:28;;;;;;;4.07;2.88;;;;;;;18.82;77.35;101247.75;5033229;28;20036;-60
2023/07/11 00:42:54;;;;;;;7.45;2.90;;;;;;;18.81;77.50;101246.00;5037805;28;20037;-60
2023/07/11 00:45:47;;;;;;;10.07;3.10;;;;;;;18.79;77.48;101247.84;5040251;28;20075;-60
2023/07/11 00:48:13;;;;;;;4.57;2.40;;;;;;;18.74;77.52;101245.38;5034973;28;20852;-60
2023/07/11 00:50:39;;;;;;;5.38;2.75;;;;;;;18.72;77.94;101241.94;5035663;28;20053;-60
2023/07/11 00:53:06;;;;;;;6.28;2.85;;;;;;;18.69;77.60;101244.69;5033354;28;20230;-60
2023/07/11 00:55:32;;;;;;;5.35;2.78;;;;;;;18.68;77.83;101240.34;5036806;28;20449;-60
2023/07/11 00:57:58;;;;;;;5.72;2.60;;;;;;;18.65;77.76;101235.19;5033053;28;20067;-60
2023/07/11 01:00:24;;;;;;;12.02;3.33;;;;;;;18.64;77.92;101238.72;5041279;28;20041;-60
2023/07/11 01:02:50;;;;;;;6.20;2.47;;;;;;;18.63;77.67;101236.16;5034718;28;20037;-60
2023/07/11 01:05:15;;;;;;;3.17;2.20;;;;;;;18.61;77.84;101230.13;5035047;28;20032;-60
2023/07/11 01:07:41;;;;;;;5.78;2.88;;;;;;;18.60;77.88;101225.78;5041902;28;20060;-59
2023/07/11 01:10:06;;;;;;;3.47;2.45;;;;;;;18.59;78.03;101224.94;5033573;28;20033;-60
2023/07/11 01:12:32;;;;;;;4.18;2.28;;;;;;;18.59;78.01;101226.69;5038544;28;20923;-60
2023/07/11 01:14:57;;;;;;;10.82;3.03;;;;;;;18.54;78.17;101224.25;5034242;28;20040;-60
2023/07/11 01:17:24;;;;;;;6.20;3.00;;;;;;;18.53;78.37;101220.75;5035798;28;20102;-59
2023/07/11 01:19:50;;;;;;;5.57;2.50;;;;;;;18.51;78.17;101219.09;5048065;28;20029;-60
2023/07/11 01:22:16;;;;;;;4.38;2.63;;;;;;;18.49;78.36;101215.69;5031440;28;20098;-60
2023/07/11 01:24:41;;;;;;;4.30;2.95;;;;;;;18.46;78.67;101215.81;5036693;28;20048;-60
2023/07/11 01:27:07;;;;;;;5.28;2.45;;;;;;;18.44;78.73;101217.59;5038453;28;20475;-60
2023/07/11 01:29:33;;;;;;;4.20;2.65;;;;;;;18.43;78.55;101213.28;5034884;28;20041;-59
2023/07/11 01:31:58;;;;;;;4.50;2.20;;;;;;;18.42;78.71;101212.44;5035139;28;20152;-60
2023/07/11 01:34:25;;;;;;;5.47;3.15;;;;;;;18.42;78.13;101211.56;5034326;28;20045;-60
2023/07/11 01:36:50;;;;;;;8.27;3.28;;;;;;;18.40;78.35;101206.38;5040837;28;20077;-61
2023/07/11 01:39:16;;;;;;;5.30;2.35;;;;;;;18.39;78.23;101193.34;5028645;28;20048;-60
2023/07/11 01:41:42;;;;;;;7.03;2.40;;;;;;;18.37;78.38;101201.22;5040380;28;20059;-60
2023/07/11 01:44:10;;;;;;;4.95;2.70;;;;;;;18.34;78.43;101197.88;5034720;28;20208;-60
2023/07/11 01:46:35;;;;;;;5.22;2.75;;;;;;;18.30;78.73;101198.88;5034398;28;20091;-60
2023/07/11 01:49:02;;;;;;;7.35;2.67;;;;;;;18.29;78.54;101194.53;5034556;28;21936;-60
2023/07/11 01:51:27;;;;;;;5.70;3.17;;;;;;;18.29;78.60;101189.31;5034504;28;20056;-60
2023/07/11 01:53:53;;;;;;;5.38;2.95;;;;;;;18.25;78.71;101191.19;5032733;28;20032;-59
2023/07/11 01:56:18;;;;;;;3.92;2.55;;;;;;;18.24;78.92;101191.22;5033228;28;20979;-60
2023/07/11 01:58:43;;;;;;;5.13;2.75;;;;;;;18.22;79.05;101185.22;5032190;28;20025;-60
2023/07/11 02:01:09;;;;;;;4.90;2.38;;;;;;;18.18;79.22;101191.44;5033829;28;20564;-60
2023/07/11 02:03:34;;;;;;;8.15;2.83;;;;;;;18.14;79.56;101189.81;5034682;28;20040;-60
2023/07/11 02:06:00;;;;;;;6.10;2.90;;;;;;;18.10;79.77;101190.84;5036724;28;20052;-60
2023/07/11 02:08:25;;;;;;;6.40;3.10;;;;;;;18.07;79.62;101186.56;5035513;28;20036;-60
2023/07/11 02:10:51;;;;;;;7.53;3.08;;;;;;;18.04;80.06;101185.81;5034827;28;20505;-60
2023/07/11 02:13:16;;;;;;;6.97;2.97;;;;;;;18.01;80.20;101183.28;5040289;28;20111;-61
2023/07/11 02:15:41;;;;;;;7.10;2.92;;;;;;;18.00;80.39;101178.94;5037256;28;20670;-60
2023/07/11 02:18:08;;;;;;;6.70;3.15;;;;;;;17.97;80.49;101187.75;5039484;28;20040;-60
2023/07/11 02:20:38;;;;;;;4.78;2.75;;;;;;;17.95;80.84;101187.81;5036631;28;20581;-60
2023/07/11 02:23:04;;;;;;;8.45;3.45;;;;;;;17.90;81.05;101181.84;5041217;28;20066;-60
2023/07/11 02:25:29;;;;;;;4.65;2.88;;;;;;;17.89;81.11;101176.69;5036473;28;20033;-60
2023/07/11 02:27:54;;;;;;;4.80;2.90;;;;;;;17.87;81.84;101174.09;5037686;28;20041;-60
2023/07/11 02:30:20;;;;;;;5.00;3.10;;;;;;;17.82;82.44;101169.91;5038431;28;20043;-60
2023/07/11 02:32:45;;;;;;;5.03;3.05;;;;;;;17.83;82.36;101169.00;5035463;28;20037;-60
2023/07/11 02:35:10;;;;;;;4.80;3.42;;;;;;;17.81;82.40;101166.41;5039673;28;20029;-60
2023/07/11 02:37:36;;;;;;;9.45;3.30;;;;;;;17.81;82.77;101168.22;5038522;28;20033;-60
2023/07/11 02:40:01;;;;;;;8.82;3.25;;;;;;;17.81;82.52;101168.22;5032550;28;20675;-60
2023/07/11 02:42:26;;;;;;;5.93;2.95;;;;;;;17.79;82.47;101162.16;5044734;28;20037;-60
2023/07/11 02:44:52;;;;;;;7.18;3.40;;;;;;;17.79;82.48;101164.75;5041680;28;20132;-60
2023/07/11 02:47:17;;;;;;;5.60;2.55;;;;;;;17.77;82.45;101161.34;5039734;28;20028;-60
2023/07/11 02:49:43;;;;;;;12.77;3.40;;;;;;;17.78;82.21;101158.66;5036021;28;20083;-60
2023/07/11 02:52:10;;;;;;;6.97;3.53;;;;;;;17.75;82.06;101163.16;5034158;28;20068;-60
2023/07/11 02:54:36;;;;;;;8.18;3.90;;;;;;;17.74;81.85;101154.47;5040706;28;20034;-60
2023/07/11 02:57:05;;;;;;;5.70;3.20;;;;;;;17.72;81.94;101151.03;5040484;28;20029;-60
2023/07/11 02:59:31;;;;;;;74.10;8.85;;;;;;;17.71;82.21;101149.31;5031878;28;20096;-60
2023/07/11 03:01:58;;;;;;;6.18;2.83;;;;;;;17.69;82.26;101145.06;5033972;28;20462;-60
2023/07/11 03:04:23;;;;;;;8.98;3.53;;;;;;;17.68;82.03;101144.19;5019558;28;20051;-60
2023/07/11 03:06:52;;;;;;;7.68;2.75;;;;;;;17.66;82.11;101147.78;5034289;28;20044;-60
2023/07/11 03:09:18;;;;;;;6.90;2.88;;;;;;;17.63;82.19;101146.06;5035110;28;20041;-60
2023/07/11 03:11:43;;;;;;;5.97;2.80;;;;;;;17.62;82.16;101140.91;5035949;28;20044;-60
2023/07/11 03:14:08;;;;;;;5.93;3.00;;;;;;;17.59;82.18;101144.47;5035790;28;20029;-61
2023/07/11 03:16:34;;;;;;;3.15;2.42;;;;;;;17.56;82.64;101143.72;5035878;28;20061;-60
2023/07/11 03:19:01;;;;;;;5.07;2.88;;;;;;;17.53;82.75;101143.81;5033937;28;20064;-61
2023/07/11 03:21:26;;;;;;;7.05;3.15;;;;;;;17.53;82.77;101143.81;5033010;28;20044;-59
2023/07/11 03:23:51;;;;;;;8.95;4.00;;;;;;;17.52;82.82;101142.94;5035876;28;20123;-60
2023/07/11 03:26:17;;;;;;;7.55;3.55;;;;;;;17.50;82.78;101139.53;5030882;28;20108;-60
2023/07/11 03:28:42;;;;;;;6.40;2.47;;;;;;;17.51;82.85;101140.41;5034610;28;20045;-60
2023/07/11 03:31:07;;;;;;;5.60;3.10;;;;;;;17.47;83.04;101139.63;5033599;28;20044;-59
2023/07/11 03:33:33;;;;;;;9.88;2.92;;;;;;;17.48;83.15;101143.09;5038831;28;20045;-60
2023/07/11 03:35:58;;;;;;;6.35;2.90;;;;;;;17.47;83.11;101142.25;5033956;28;20155;-60
2023/07/11 03:38:23;;;;;;;6.90;3.08;;;;;;;17.47;83.36;101137.00;5040166;28;20114;-60
2023/07/11 03:40:49;;;;;;;5.57;2.90;;;;;;;17.45;83.48;101141.44;5037910;28;20123;-60
2023/07/11 03:43:14;;;;;;;6.97;3.08;;;;;;;17.46;83.22;101134.44;5042811;28;20041;-60
2023/07/11 03:45:43;;;;;;;7.85;3.15;;;;;;;17.47;83.30;101133.53;5039979;28;20143;-60
2023/07/11 03:48:09;;;;;;;7.53;2.90;;;;;;;17.48;83.38;101132.66;5040003;28;20793;-60
2023/07/11 03:50:34;;;;;;;6.55;3.28;;;;;;;17.47;83.42;101130.94;5037379;28;20055;-60
2023/07/11 03:53:00;;;;;;;6.28;3.42;;;;;;;17.50;83.38;101131.69;5038083;28;20033;-60
2023/07/11 03:55:25;;;;;;;9.07;3.70;;;;;;;17.49;83.28;101134.34;5040243;28;20033;-60
2023/07/11 03:57:50;;;;;;;7.40;3.53;;;;;;;17.50;83.32;101129.09;5042517;28;20037;-60
2023/07/11 04:00:16;;;;;;;7.78;3.22;;;;;;;17.52;83.26;101132.50;5037032;28;20120;-60
2023/07/11 04:02:41;;;;;;;5.20;3.50;;;;;;;17.52;83.23;101126.41;5037921;28;20273;-60
2023/07/11 04:05:07;;;;;;;6.53;2.90;;;;;;;17.59;82.82;101125.31;5040539;28;20034;-60
2023/07/11 04:07:32;;;;;;;7.40;3.22;;;;;;;17.63;82.94;101122.53;5039551;28;20032;-60
2023/07/11 04:09:58;;;;;;;7.25;3.33;;;;;;;17.68;82.63;101115.44;5031996;28;20080;-60
2023/07/11 04:12:23;;;;;;;6.60;3.17;;;;;;;17.73;82.43;101104.81;5039396;28;20561;-60
2023/07/11 04:14:48;;;;;;;6.40;3.15;;;;;;;17.75;82.34;101109.09;5037865;28;20037;-60
2023/07/11 04:17:14;;;;;;;7.03;3.25;;;;;;;17.82;82.12;101108.00;5040892;28;20035;-60
2023/07/11 04:19:39;;;;;;;5.38;2.75;;;;;;;17.90;82.01;101110.38;5040243;28;20040;-60
2023/07/11 04:22:04;;;;;;;5.65;3.03;;;;;;;17.96;81.53;101107.56;5037675;28;20548;-60
2023/07/11 04:24:30;;;;;;;10.80;3.75;;;;;;;18.01;81.59;101113.53;5033007;28;20103;-60
2023/07/11 04:26:55;;;;;;;4.95;3.42;;;;;;;18.10;81.31;101118.44;5040522;28;20045;-60
2023/07/11 04:29:21;;;;;;;6.43;3.30;;;;;;;18.14;81.12;101108.69;5037865;28;20131;-60
2023/07/11 04:31:46;;;;;;;6.78;3.53;;;;;;;18.21;80.92;101105.84;5035356;28;21009;-61
2023/07/11 04:34:11;;;;;;;7.88;2.78;;;;;;;18.28;80.88;101103.88;5036291;28;21265;-60
2023/07/11 04:36:37;;;;;;;6.30;3.60;;;;;;;18.36;80.69;101096.59;5035942;28;20486;-60
2023/07/11 04:39:03;;;;;;;7.10;3.35;;;;;;;18.44;80.38;101097.19;5031330;28;20045;-60
2023/07/11 04:41:28;;;;;;;5.93;3.67;;;;;;;18.53;79.95;101089.00;5041392;28;20052;-60
2023/07/11 04:43:54;;;;;;;8.18;3.25;;;;;;;18.61;80.05;101094.81;5041349;28;20028;-61
2023/07/11 04:46:19;;;;;;;9.60;3.45;;;;;;;18.68;79.65;101091.06;5037758;28;20037;-61
2023/07/11 04:48:46;;;;;;;8.07;3.38;;;;;;;18.76;79.45;101091.63;5038833;28;20674;-61
2023/07/11 04:51:11;;;;;;;7.88;3.50;;;;;;;18.84;79.66;101084.41;5039155;28;20052;-61
2023/07/11 04:53:37;;;;;;;7.18;3.78;;;;;;;18.92;79.26;101078.88;5029548;28;20037;-61
2023/07/11 04:56:06;;;;;;;8.77;3.72;;;;;;;19.03;78.85;101076.69;5038649;28;20028;-61
2023/07/11 04:58:33;;;;;;;7.20;3.95;;;;;;;19.12;78.69;101078.13;5032069;28;20064;-61
2023/07/11 05:01:03;;;;;;;8.30;3.55;;;;;;;19.23;78.42;101073.31;5034236;28;20379;-61
2023/07/11 05:03:28;;;;;;;6.13;3.40;;;;;;;19.33;78.35;101074.66;5038083;28;20080;-60
2023/07/11 05:05:54;;;;;;;11.40;3.80;;;;;;;19.44;77.55;101072.47;5033232;28;20036;-61
2023/07/11 05:08:20;;;;;;;6.95;3.80;;;;;;;19.56;76.94;101066.75;5035052;28;20060;-61
2023/07/11 05:11:16;;;;;;;7.35;3.50;;;;;;;19.70;76.95;101060.91;5035777;28;20037;-61
2023/07/11 05:13:43;;;;;;;6.10;3.03;;;;;;;19.80;76.62;101057.88;5037121;28;20049;-60
2023/07/11 05:16:15;;;;;;;8.93;3.63;;;;;;;19.90;76.21;101064.47;5040217;28;20029;-61
2023/07/11 05:18:41;;;;;;;8.98;3.03;;;;;;;19.99;75.81;101057.97;5036856;28;20743;-60
2023/07/11 05:21:08;;;;;;;7.63;3.15;;;;;;;20.13;76.16;101056.47;5028906;28;20048;-60
2023/07/11 05:23:34;;;;;;;5.53;3.17;;;;;;;20.27;75.77;101052.41;5026396;28;20122;-61
2023/07/11 05:26:00;;;;;;;7.60;3.45;;;;;;;20.44;73.71;101039.38;5033607;28;20116;-61
2023/07/11 05:28:26;;;;;;;6.88;3.40;;;;;;;20.58;73.29;101031.72;5035541;28;20111;-61
2023/07/11 05:30:52;;;;;;;5.53;2.33;;;;;;;20.69;72.79;101030.34;5040155;28;20179;-60
2023/07/11 05:33:17;;;;;;;6.90;2.92;;;;;;;20.87;71.37;101025.19;5033335;28;20497;-60
2023/07/11 05:35:57;;;;;;;5.80;3.42;;;;;;;20.96;70.05;101011.56;5032902;28;20048;-60
2023/07/11 05:38:23;;;;;;;8.20;3.35;;;;;;;21.09;69.81;101007.47;5030382;28;20040;-60
2023/07/11 05:40:48;;;;;;;8.35;3.05;;;;;;;21.18;69.57;101010.50;5033042;28;20044;-61
2023/07/11 05:43:14;;;;;;;4.90;2.53;;;;;;;21.27;69.42;101011.84;5035059;28;20111;-61
2023/07/11 05:45:43;;;;;;;5.93;2.78;;;;;;;21.32;69.59;101008.97;5033171;28;20054;-61
2023/07/11 05:48:09;;;;;;;4.97;2.88;;;;;;;21.38;69.22;101009.53;5038857;28;20041;-61
2023/07/11 05:50:34;;;;;;;10.50;3.15;;;;;;;21.47;67.87;100995.94;5027218;28;20639;-61
2023/07/11 05:53:00;;;;;;;4.47;3.05;;;;;;;21.53;68.01;100992.13;5033964;28;20056;-60
2023/07/11 05:55:26;;;;;;;4.40;2.75;;;;;;;21.61;67.92;100993.47;5035392;28;20043;-61
2023/07/11 05:57:51;;;;;;;7.13;2.80;;;;;;;21.71;67.90;100984.22;5040591;28;20044;-61
2023/07/11 06:00:17;;;;;;;5.65;3.00;;;;;;;21.76;68.07;100986.59;5033263;28;20033;-61
2023/07/11 06:02:42;;;;;;;4.82;2.47;;;;;;;21.78;68.82;100990.88;5037982;28;20174;-61
2023/07/11 06:05:08;;;;;;;8.32;3.00;;;;;;;21.82;67.94;100978.38;5034013;28;20701;-61
2023/07/11 06:07:34;;;;;;;4.57;2.80;;;;;;;21.87;67.87;100979.03;5036440;28;20425;-61
2023/07/11 06:09:59;;;;;;;5.63;2.95;;;;;;;21.98;67.31;100971.41;5032250;28;20033;-60
2023/07/11 06:12:25;;;;;;;6.90;2.50;;;;;;;22.06;66.94;100963.09;5039767;28;20091;-60
2023/07/11 06:14:51;;;;;;;5.13;3.00;;;;;;;22.07;66.73;100963.03;5040127;28;20779;-60
2023/07/11 06:17:16;;;;;;;6.13;2.88;;;;;;;22.17;65.78;100952.88;5035085;28;20094;-60
2023/07/11 06:19:42;;;;;;;5.28;2.67;;;;;;;22.19;66.48;100965.03;5035728;28;20045;-60
2023/07/11 06:22:07;;;;;;;5.20;2.75;;;;;;;22.25;66.14;100967.34;5039421;28;20032;-60
2023/07/11 06:24:33;;;;;;;4.68;3.00;;;;;;;22.28;66.10;100956.63;5033628;28;20040;-60
2023/07/11 06:26:59;;;;;;;10.13;3.28;;;;;;;22.35;66.30;100963.25;5030132;28;20596;-61
2023/07/11 06:29:25;;;;;;;5.03;2.80;;;;;;;22.40;65.77;100956.94;5029949;28;20057;-61
2023/07/11 06:31:51;;;;;;;8.38;3.33;;;;;;;22.49;65.41;100954.66;5026159;28;20029;-61
2023/07/11 06:34:16;;;;;;;4.57;2.60;;;;;;;22.58;65.01;100951.53;5033234;28;20025;-61
2023/07/11 06:36:41;;;;;;;5.25;2.90;;;;;;;22.71;64.83;100947.25;5034937;28;20072;-61
2023/07/11 06:39:07;;;;;;;5.72;2.70;;;;;;;22.80;65.07;100951.16;5023069;28;20047;-61
2023/07/11 06:41:33;;;;;;;8.43;2.60;;;;;;;22.86;64.83;100942.91;5034831;28;20037;-61
2023/07/11 06:43:58;;;;;;;5.35;3.00;;;;;;;22.94;64.57;100939.88;5033923;28;20037;-61
2023/07/11 06:46:23;;;;;;;5.82;3.05;;;;;;;23.03;64.14;100937.56;5031290;28;20033;-61
2023/07/11 06:48:49;;;;;;;5.32;2.78;;;;;;;23.21;62.92;100911.94;5038037;28;20044;-61
2023/07/11 06:51:14;;;;;;;6.78;2.60;;;;;;;23.30;62.62;100906.97;5050019;28;20072;-61
2023/07/11 06:53:40;;;;;;;6.38;2.97;;;;;;;23.43;62.60;100907.94;5030002;28;20045;-61
2023/07/11 06:56:05;;;;;;;6.45;2.50;;;;;;;23.53;62.11;100899.50;5030719;28;20509;-61
2023/07/11 06:58:31;;;;;;;7.10;2.80;;;;;;;23.63;61.02;100892.72;5033462;28;20644;-60
2023/07/11 07:01:02;;;;;;;5.75;2.72;;;;;;;23.73;60.48;100884.16;5035665;28;20040;-61
2023/07/11 07:03:27;;;;;;;5.05;2.80;;;;;;;23.79;60.54;100888.22;5034950;28;20048;-61
2023/07/11 07:05:58;;;;;;;4.57;2.33;;;;;;;23.86;60.66;100889.53;5032403;28;20405;-61
2023/07/11 07:08:24;;;;;;;5.70;2.67;;;;;;;23.95;59.79;100876.66;5033316;28;20024;-61
2023/07/11 07:10:50;;;;;;;4.10;2.17;;;;;;;24.09;58.75;100873.16;5031120;28;21123;-61
2023/07/11 07:13:18;;;;;;;4.82;2.65;;;;;;;24.19;58.04;100861.06;5030585;28;20078;-61
2023/07/11 07:15:48;;;;;;;5.72;2.58;;;;;;;24.33;58.53;100868.13;5029803;28;20060;-61
2023/07/11 07:18:14;;;;;;;9.02;2.72;;;;;;;24.46;57.12;100851.38;5039357;28;20036;-60
2023/07/11 07:20:39;;;;;;;7.72;2.63;;;;;;;24.53;57.60;100859.75;5037007;28;20037;-61
2023/07/11 07:23:05;;;;;;;2.60;2.10;;;;;;;24.56;58.31;100872.78;5030531;28;20613;-61
2023/07/11 07:25:31;;;;;;;3.85;2.33;;;;;;;24.68;57.35;100853.47;5034031;28;20561;-61
2023/07/11 07:27:57;;;;;;;4.97;2.88;;;;;;;24.74;57.16;100852.25;5033891;28;20033;-61
2023/07/11 07:30:23;;;;;;;5.50;3.00;;;;;;;24.84;56.88;100841.00;5035227;28;20416;-61
2023/07/11 07:32:49;;;;;;;6.43;2.33;;;;;;;24.92;57.42;100845.75;5030571;28;20083;-61
2023/07/11 07:35:14;;;;;;;6.70;2.67;;;;;;;25.02;56.34;100828.34;5032920;28;20029;-61
2023/07/11 07:37:40;;;;;;;5.75;2.88;;;;;;;25.15;55.62;100826.53;5036696;28;20057;-62
2023/07/11 07:40:06;;;;;;;5.65;2.65;;;;;;;25.31;55.46;100815.78;5034036;28;20030;-61
2023/07/11 07:42:31;;;;;;;5.78;2.60;;;;;;;25.40;55.22;100818.69;5032137;28;20045;-61
2023/07/11 07:44:57;;;;;;;4.68;2.60;;;;;;;25.47;55.24;100819.09;5037204;28;20457;-62
2023/07/11 07:47:22;;;;;;;4.20;2.90;;;;;;;25.63;54.56;100807.34;5033166;28;20754;-61
2023/07/11 07:49:47;;;;;;;7.15;2.80;;;;;;;25.75;54.23;100795.03;5034311;28;20044;-61
2023/07/11 07:52:13;;;;;;;4.15;2.65;;;;;;;25.89;53.54;100776.34;5030634;28;20132;-61
2023/07/11 07:54:38;;;;;;;5.05;2.33;;;;;;;26.02;53.23;100777.19;5029274;28;20394;-61
2023/07/11 07:57:04;;;;;;;5.95;2.70;;;;;;;26.13;52.89;100774.63;5031935;28;20044;-63
2023/07/11 07:59:30;;;;;;;3.67;2.40;;;;;;;26.26;52.30;100755.19;5029214;28;20071;-62
2023/07/11 08:01:57;;;;;;;4.80;2.45;;;;;;;26.32;52.71;100776.78;5028786;28;20037;-62
2023/07/11 08:04:22;;;;;;;5.50;2.80;;;;;;;26.40;52.73;100771.75;5027490;28;20359;-62
2023/07/11 08:06:47;;;;;;;6.15;2.53;;;;;;;26.50;52.96;100772.78;5035134;28;20094;-62
2023/07/11 08:09:13;;;;;;;8.40;2.90;;;;;;;26.58;51.22;100754.47;5026890;28;20498;-62
2023/07/11 08:11:38;;;;;;;5.13;2.88;;;;;;;26.64;52.41;100772.59;5034414;28;20045;-62
2023/07/11 08:14:03;;;;;;;5.00;2.60;;;;;;;26.78;50.63;100736.25;5037297;28;20040;-62
2023/07/11 08:16:30;;;;;;;3.58;2.50;;;;;;;26.84;51.56;100747.22;5036641;28;20751;-62
2023/07/11 08:18:56;;;;;;;4.78;2.70;;;;;;;26.96;51.01;100734.84;5033262;28;20051;-62
2023/07/11 08:21:23;;;;;;;5.82;2.10;;;;;;;27.09;50.58;100727.63;5037730;28;20640;-62
2023/07/11 08:23:48;;;;;;;6.75;3.05;;;;;;;27.18;49.50;100709.19;5035686;28;20155;-62
2023/07/11 08:26:14;;;;;;;4.45;2.53;;;;;;;27.22;50.66;100736.34;5036114;28;20167;-62
2023/07/11 08:28:41;;;;;;;6.63;2.70;;;;;;;27.35;49.62;100717.63;5032657;28;20039;-62
2023/07/11 08:31:07;;;;;;;5.05;2.40;;;;;;;27.40;49.84;100718.94;5027946;28;20043;-64
2023/07/11 08:33:32;;;;;;;3.00;2.30;;;;;;;27.46;49.92;100709.72;5032768;28;20040;-64
2023/07/11 08:35:58;;;;;;;4.18;2.25;;;;;;;27.43;49.49;100708.09;5033335;28;20682;-64
2023/07/11 08:38:24;;;;;;;6.15;2.33;;;;;;;27.47;48.19;100688.34;5028113;28;22108;-64
2023/07/11 08:40:50;;;;;;;4.07;2.10;;;;;;;27.55;47.19;100677.94;5035438;28;20270;-63
2023/07/11 08:43:21;;;;;;;4.57;2.10;;;;;;;27.64;47.79;100687.00;5036530;28;20701;-64
2023/07/11 08:45:54;;;;;;;5.50;2.28;;;;;;;27.77;47.31;100682.38;5038980;28;20667;-64
2023/07/11 08:48:36;;;;;;;5.07;2.28;;;;;;;27.76;46.94;100681.53;5036766;28;20040;-64
2023/07/11 08:51:09;;;;;;;6.18;3.15;;;;;;;27.86;44.93;100643.59;5035130;28;20094;-64
2023/07/11 08:53:40;;;;;;;3.90;2.25;;;;;;;27.92;44.99;100641.28;5034055;28;21627;-64
2023/07/11 08:56:40;;;;;;;4.25;2.33;;;;;;;28.03;43.99;100627.94;5033541;28;20107;-63
2023/07/11 08:59:41;;;;;;;4.15;2.25;;;;;;;28.09;43.33;100623.94;5028357;28;20041;-64
2023/07/11 09:02:21;;;;;;;4.82;2.38;;;;;;;28.21;42.65;100612.31;5032571;28;20035;-63
2023/07/11 09:04:52;;;;;;;4.20;2.63;;;;;;;28.29;42.70;100618.66;5036669;28;20082;-63
2023/07/11 09:07:36;;;;;;;4.05;2.28;;;;;;;28.41;42.23;100603.50;5039940;28;20037;-64
2023/07/11 09:10:12;;;;;;;8.27;2.45;;;;;;;28.44;42.45;100605.88;5031358;28;20139;-64
2023/07/11 09:12:54;;;;;;;7.03;2.83;;;;;;;28.55;43.14;100620.94;5039983;28;20053;-63
2023/07/11 09:15:32;;;;;;;6.55;2.60;;;;;;;28.70;41.53;100593.88;5033092;28;20412;-63
2023/07/11 09:18:05;;;;;;;7.07;2.63;;;;;;;28.79;41.75;100590.47;5040876;28;20128;-63
2023/07/11 09:20:48;;;;;;;4.43;2.20;;;;;;;28.80;40.43;100572.66;5039113;28;20045;-64
2023/07/11 09:23:22;;;;;;;4.10;2.88;;;;;;;28.89;40.48;100570.03;5030360;28;20033;-63
2023/07/11 09:25:49;;;;;;;6.43;2.40;;;;;;;29.02;40.17;100579.59;5037634;28;20641;-63
2023/07/11 09:28:22;;;;;;;4.28;2.70;;;;;;;29.13;40.13;100571.50;5033393;28;20072;-63
2023/07/11 09:30:55;;;;;;;5.80;3.00;;;;;;;29.16;39.85;100566.75;5037874;28;20079;-63
2023/07/11 09:33:23;;;;;;;6.10;2.47;;;;;;;29.18;39.36;100553.31;5034723;28;20068;-64
2023/07/11 09:35:51;;;;;;;4.38;2.53;;;;;;;29.22;39.43;100555.56;5034091;28;20047;-63
2023/07/11 09:38:24;;;;;;;9.55;3.15;;;;;;;29.28;38.92;100551.50;5030959;28;20036;-64
2023/07/11 09:41:04;;;;;;;6.40;2.90;;;;;;;29.37;38.67;100546.25;5033853;28;20046;-64
2023/07/11 09:43:29;;;;;;;5.30;2.80;;;;;;;29.53;38.87;100552.84;5036292;28;20048;-64
2023/07/11 09:45:55;;;;;;;5.75;2.90;;;;;;;29.56;38.51;100545.41;5036622;28;20037;-63
2023/07/11 09:48:34;;;;;;;3.90;2.47;;;;;;;29.57;36.61;100519.63;5032364;28;20047;-64
2023/07/11 09:51:19;;;;;;;5.13;2.60;;;;;;;29.66;37.67;100534.78;5034273;28;20126;-65
2023/07/11 09:53:46;;;;;;;3.85;2.88;;;;;;;29.76;35.58;100511.63;5034824;28;20076;-64
2023/07/11 09:56:15;;;;;;;4.32;2.38;;;;;;;29.87;34.66;100492.81;5034780;28;20033;-63
2023/07/11 09:58:46;;;;;;;4.53;2.92;;;;;;;29.96;34.88;100503.50;5037510;28;20033;-63
2023/07/11 10:01:18;;;;;;;4.45;2.67;;;;;;;30.11;34.83;100498.53;5035213;28;20122;-63
2023/07/11 10:03:47;;;;;;;6.35;2.83;;;;;;;30.21;34.85;100503.88;5032872;28;20044;-63
2023/07/11 10:06:42;;;;;;;6.65;2.97;;;;;;;30.35;34.72;100498.06;5034867;28;20839;-64
2023/07/11 10:09:14;;;;;;;5.57;3.00;;;;;;;30.46;35.27;100504.06;5034747;28;21732;-63
2023/07/11 10:11:39;;;;;;;4.45;2.90;;;;;;;30.53;35.26;100515.00;5036099;28;20107;-63
2023/07/11 10:14:04;;;;;;;4.05;2.95;;;;;;;30.63;35.33;100496.31;5036833;28;20514;-63
2023/07/11 10:16:33;;;;;;;6.05;3.53;;;;;;;30.67;35.17;100505.72;5036312;28;20041;-63
2023/07/11 10:18:59;;;;;;;5.25;2.90;;;;;;;30.66;35.88;100517.34;5031455;28;20039;-64
2023/07/11 10:21:27;;;;;;;6.28;3.40;;;;;;;30.70;36.16;100514.22;5034138;28;20041;-63
2023/07/11 10:23:53;;;;;;;6.28;3.47;;;;;;;30.73;36.13;100499.78;5032500;28;20067;-63
2023/07/11 10:26:23;;;;;;;5.40;3.10;;;;;;;30.74;36.02;100496.94;5033879;28;20033;-63
2023/07/11 10:29:00;;;;;;;9.10;3.75;;;;;;;30.84;35.61;100499.56;5033604;28;20027;-64
2023/07/11 10:31:44;;;;;;;7.18;3.78;;;;;;;31.04;35.70;100493.97;5035242;28;20037;-64
2023/07/11 10:34:13;;;;;;;5.97;3.25;;;;;;;31.10;35.56;100489.84;5034066;28;20041;-63
2023/07/11 10:36:46;;;;;;;3.67;3.00;;;;;;;31.24;36.07;100489.34;5032904;28;20053;-63
2023/07/11 10:39:18;;;;;;;4.88;3.22;;;;;;;31.43;35.66;100489.22;5034198;28;20064;-64
2023/07/11 10:41:53;;;;;;;5.47;3.38;;;;;;;31.50;35.13;100478.78;5032441;28;20152;-64
2023/07/11 10:44:37;;;;;;;7.38;3.45;;;;;;;31.57;34.25;100459.28;5035690;28;20025;-64
2023/07/11 10:47:04;;;;;;;7.67;3.20;;;;;;;31.68;34.77;100470.75;5034642;28;20039;-63
2023/07/11 10:49:47;;;;;;;5.75;3.45;;;;;;;32.03;34.46;100457.31;5032482;28;20128;-63
2023/07/11 10:52:22;;;;;;;5.05;3.35;;;;;;;32.05;34.80;100453.50;5030216;28;20157;-63
2023/07/11 10:54:53;;;;;;;5.68;3.47;;;;;;;32.30;33.87;100441.13;5038297;28;20045;-63
2023/07/11 10:57:45;;;;;;;6.45;3.40;;;;;;;32.32;33.50;100435.59;5033441;28;20040;-63
2023/07/11 11:00:46;;;;;;;5.32;3.30;;;;;;;32.22;33.78;100433.00;5032477;28;20037;-63
2023/07/11 11:03:34;;;;;;;7.57;3.47;;;;;;;32.34;33.66;100428.25;5014126;28;20100;-63
2023/07/11 11:06:27;;;;;;;6.68;3.65;;;;;;;32.24;33.09;100414.16;5032536;28;20588;-63
2023/07/11 11:08:58;;;;;;;5.93;3.50;;;;;;;32.34;33.18;100422.91;5032994;28;20045;-62
2023/07/11 11:11:37;;;;;;;6.07;4.10;;;;;;;32.48;30.57;100379.50;5028057;28;20487;-63
2023/07/11 11:14:10;;;;;;;6.55;3.88;;;;;;;32.60;30.69;100384.34;5040036;28;20021;-63
2023/07/11 11:16:47;;;;;;;6.20;3.78;;;;;;;32.73;30.27;100375.88;5032802;28;20047;-64
2023/07/11 11:19:48;;;;;;;5.95;3.63;;;;;;;32.92;30.62;100390.84;5035299;28;20040;-64
2023/07/11 11:22:24;;;;;;;6.75;3.55;;;;;;;32.99;29.33;100368.56;5033394;28;20094;-64
2023/07/11 11:25:00;;;;;;;5.22;3.20;;;;;;;33.17;29.63;100363.91;5032993;28;20032;-64
2023/07/11 11:28:03;;;;;;;4.32;3.22;;;;;;;33.20;29.91;100366.25;5036869;28;20118;-64
2023/07/11 11:30:33;;;;;;;6.32;3.70;;;;;;;33.27;30.17;100369.09;5025251;28;20048;-64